createdAt,value
2023-01-15T00:01:46.272Z,3.49
2023-01-15T00:04:14.188Z,3.47
2023-01-15T00:06:42.055Z,3.44
2023-01-15T00:09:09.920Z,3.40
2023-01-15T00:11:37.804Z,3.37
2023-01-15T00:14:05.741Z,3.44
2023-01-15T00:16:33.635Z,3.46
2023-01-15T00:19:01.800Z,3.47
2023-01-15T00:21:29.682Z,3.48
2023-01-15T00:24:16.627Z,3.50
2023-01-15T00:27:03.181Z,3.50
2023-01-15T00:29:31.078Z,3.50
2023-01-15T00:31:58.994Z,3.49
2023-01-15T00:34:26.973Z,3.48
2023-01-15T00:36:54.854Z,3.47
2023-01-15T00:39:24.290Z,3.47
2023-01-15T00:41:52.245Z,3.49
2023-01-15T00:44:20.627Z,3.55
2023-01-15T00:46:48.526Z,3.55
2023-01-15T00:49:16.526Z,3.52
2023-01-15T00:51:44.466Z,3.55
2023-01-15T00:54:12.369Z,3.57
2023-01-15T00:56:40.252Z,3.58
2023-01-15T00:59:08.180Z,3.59
2023-01-15T01:01:36.166Z,3.59
2023-01-15T01:04:04.274Z,3.58
2023-01-15T01:06:32.159Z,3.57
2023-01-15T01:09:00.095Z,3.57
2023-01-15T01:11:28.775Z,3.62
2023-01-15T01:13:56.747Z,3.65
2023-01-15T01:16:24.663Z,3.64
2023-01-15T01:18:52.555Z,3.60
2023-01-15T01:21:20.509Z,3.61
2023-01-15T01:23:48.449Z,3.62
2023-01-15T01:26:16.392Z,3.62
2023-01-15T01:28:44.337Z,3.64
2023-01-15T01:31:12.504Z,3.62
2023-01-15T01:33:40.421Z,3.60
2023-01-15T01:36:08.289Z,3.60
2023-01-15T01:38:36.159Z,3.59
2023-01-15T01:41:04.040Z,3.59
2023-01-15T01:43:31.974Z,3.60
2023-01-15T01:45:59.902Z,3.61
2023-01-15T01:48:27.851Z,3.70
2023-01-15T01:50:55.724Z,3.73
2023-01-15T01:53:23.615Z,3.74
2023-01-15T01:55:51.597Z,3.76
2023-01-15T01:58:19.512Z,3.78
2023-01-15T02:00:47.447Z,3.80
2023-01-15T02:03:15.361Z,3.81
2023-01-15T02:05:43.216Z,3.83
2023-01-15T02:08:11.117Z,3.82
2023-01-15T02:10:39.027Z,3.82
2023-01-15T02:13:06.909Z,3.79
2023-01-15T02:15:34.810Z,3.79
2023-01-15T02:18:02.784Z,3.79
2023-01-15T02:20:31.274Z,3.79
2023-01-15T02:22:59.167Z,3.87
2023-01-15T02:25:27.043Z,3.90
2023-01-15T02:27:54.938Z,3.91
2023-01-15T02:30:23.427Z,3.92
2023-01-15T02:32:51.295Z,3.93
2023-01-15T02:35:19.203Z,3.95
2023-01-15T02:37:47.073Z,3.94
2023-01-15T02:40:15.015Z,3.95
2023-01-15T02:42:42.899Z,3.95
2023-01-15T02:45:10.772Z,3.95
2023-01-15T02:47:38.628Z,3.95
2023-01-15T02:50:06.486Z,3.95
2023-01-15T02:52:34.331Z,3.94
2023-01-15T02:55:02.215Z,3.95
2023-01-15T02:57:30.162Z,4.03
2023-01-15T02:59:58.036Z,4.06
2023-01-15T03:02:26.618Z,4.06
2023-01-15T03:04:54.634Z,4.08
2023-01-15T03:07:22.516Z,4.10
2023-01-15T03:09:50.421Z,4.12
2023-01-15T03:12:18.281Z,4.14
2023-01-15T03:14:46.183Z,4.14
2023-01-15T03:17:14.048Z,4.16
2023-01-15T03:19:41.955Z,4.16
2023-01-15T03:22:09.848Z,4.16
2023-01-15T03:24:37.726Z,4.16
2023-01-15T03:27:05.604Z,4.16
2023-01-15T03:29:33.472Z,4.18
2023-01-15T03:32:01.369Z,4.17
2023-01-15T03:34:29.245Z,4.20
2023-01-15T03:36:57.106Z,4.29
2023-01-15T03:39:24.991Z,4.32
2023-01-15T03:41:52.932Z,4.33
2023-01-15T03:44:20.837Z,4.35
2023-01-15T03:46:48.695Z,4.37
2023-01-15T03:49:16.620Z,4.38
2023-01-15T03:51:44.563Z,4.40
2023-01-15T03:54:12.509Z,4.42
2023-01-15T03:56:40.416Z,4.42
2023-01-15T03:59:08.296Z,4.43
2023-01-15T04:01:36.344Z,4.42
2023-01-15T04:04:04.426Z,4.42
2023-01-15T04:06:32.327Z,4.43
2023-01-15T04:09:00.215Z,4.44
2023-01-15T04:11:28.095Z,4.51
2023-01-15T04:13:56.054Z,4.54
2023-01-15T04:16:23.905Z,4.55
2023-01-15T04:18:51.807Z,4.56
2023-01-15T04:21:19.739Z,4.59
2023-01-15T04:23:47.614Z,4.59
2023-01-15T04:26:15.540Z,4.59
2023-01-15T04:28:43.456Z,4.58
2023-01-15T04:31:11.355Z,4.59
2023-01-15T04:33:40.269Z,4.59
2023-01-15T04:36:09.170Z,4.60
2023-01-15T04:38:37.036Z,4.60
2023-01-15T04:41:23.795Z,4.60
2023-01-15T04:44:07.402Z,4.60
2023-01-15T04:46:35.336Z,4.59
2023-01-15T04:49:03.293Z,4.60
2023-01-15T04:51:31.171Z,4.60
2023-01-15T04:53:59.644Z,4.61
2023-01-15T04:56:27.563Z,4.71
2023-01-15T04:58:55.487Z,4.75
2023-01-15T05:01:23.456Z,4.75
2023-01-15T05:03:51.347Z,4.77
2023-01-15T05:06:19.210Z,4.79
2023-01-15T05:08:47.139Z,4.81
2023-01-15T05:11:15.000Z,4.82
2023-01-15T05:13:42.857Z,4.82
2023-01-15T05:16:10.841Z,4.81
2023-01-15T05:18:38.750Z,4.82
2023-01-15T05:21:06.675Z,4.81
2023-01-15T05:23:34.554Z,4.81
2023-01-15T05:26:02.417Z,4.81
2023-01-15T05:28:30.261Z,4.80
2023-01-15T05:30:58.206Z,4.80
2023-01-15T05:33:26.098Z,4.79
2023-01-15T05:35:53.952Z,4.78
2023-01-15T05:38:21.879Z,4.78
2023-01-15T05:40:49.768Z,4.79
2023-01-15T05:43:17.638Z,4.86
2023-01-15T05:45:45.524Z,4.88
2023-01-15T05:48:13.385Z,4.88
2023-01-15T05:50:41.292Z,4.88
2023-01-15T05:53:09.189Z,4.89
2023-01-15T05:55:37.082Z,4.89
2023-01-15T05:58:04.958Z,4.89
2023-01-15T06:00:32.813Z,4.89
2023-01-15T06:03:00.802Z,4.89
2023-01-15T06:05:28.743Z,4.88
2023-01-15T06:07:56.617Z,4.87
2023-01-15T06:10:24.511Z,4.86
2023-01-15T06:12:52.359Z,4.85
2023-01-15T06:15:20.228Z,4.84
2023-01-15T06:17:48.110Z,4.83
2023-01-15T06:20:15.974Z,4.82
2023-01-15T06:22:43.854Z,4.87
2023-01-15T06:25:11.703Z,4.89
2023-01-15T06:27:39.620Z,4.89
2023-01-15T06:30:07.492Z,4.90
2023-01-15T06:32:35.489Z,4.90
2023-01-15T06:35:03.352Z,4.92
2023-01-15T06:37:31.241Z,4.92
2023-01-15T06:39:59.130Z,4.91
2023-01-15T06:42:56.294Z,4.92
2023-01-15T06:45:42.954Z,4.90
2023-01-15T06:48:13.674Z,4.90
2023-01-15T06:50:43.128Z,4.90
2023-01-15T06:53:11.270Z,4.89
2023-01-15T06:55:39.124Z,4.88
2023-01-15T06:58:07.062Z,4.88
2023-01-15T07:00:34.982Z,4.88
2023-01-15T07:03:02.887Z,4.90
2023-01-15T07:05:30.870Z,4.98
2023-01-15T07:07:58.721Z,5.01
2023-01-15T07:10:26.600Z,5.03
2023-01-15T07:12:54.463Z,5.06
2023-01-15T07:15:22.412Z,5.09
2023-01-15T07:17:50.294Z,5.11
2023-01-15T07:20:21.630Z,5.13
2023-01-15T07:22:49.524Z,5.16
2023-01-15T07:25:17.382Z,5.17
2023-01-15T07:27:45.249Z,5.19
2023-01-15T07:30:13.142Z,5.22
2023-01-15T07:32:40.991Z,5.24
2023-01-15T07:35:10.367Z,5.26
2023-01-15T07:37:39.864Z,5.28
2023-01-15T07:40:07.772Z,5.30
2023-01-15T07:42:54.305Z,5.36
2023-01-15T07:45:41.001Z,5.46
2023-01-15T07:48:27.912Z,5.48
2023-01-15T07:50:55.795Z,5.51
2023-01-15T07:53:23.670Z,5.55
2023-01-15T07:55:51.582Z,5.59
2023-01-15T07:58:19.480Z,5.62
2023-01-15T08:00:47.393Z,5.64
2023-01-15T08:03:15.296Z,5.67
2023-01-15T08:05:43.184Z,5.69
2023-01-15T08:08:11.354Z,5.71
2023-01-15T08:10:59.183Z,5.73
2023-01-15T08:13:45.820Z,5.74
2023-01-15T08:16:13.814Z,5.76
2023-01-15T08:18:41.752Z,5.78
2023-01-15T08:21:09.618Z,5.79
2023-01-15T08:23:37.504Z,5.80
2023-01-15T08:26:06.306Z,5.86
2023-01-15T08:28:34.191Z,5.93
2023-01-15T08:31:02.060Z,5.93
2023-01-15T08:33:29.945Z,5.95
2023-01-15T08:35:57.819Z,5.97
2023-01-15T08:38:25.684Z,5.98
2023-01-15T08:40:59.391Z,5.99
2023-01-15T08:43:27.265Z,6.01
2023-01-15T08:45:55.140Z,6.02
2023-01-15T08:48:23.072Z,6.01
2023-01-15T08:50:51.207Z,6.03
2023-01-15T08:53:21.968Z,6.02
2023-01-15T08:55:49.921Z,6.03
2023-01-15T08:58:17.820Z,6.03
2023-01-15T09:00:45.768Z,6.03
2023-01-15T09:03:13.728Z,6.02
2023-01-15T09:05:41.618Z,6.03
2023-01-15T09:08:09.527Z,6.04
2023-01-15T09:10:37.412Z,6.11
2023-01-15T09:13:05.276Z,6.14
2023-01-15T09:15:33.173Z,6.13
2023-01-15T09:18:01.017Z,6.15
2023-01-15T09:20:28.943Z,6.16
2023-01-15T09:22:56.793Z,6.18
2023-01-15T09:25:24.853Z,6.20
2023-01-15T09:27:52.765Z,6.21
2023-01-15T09:30:20.702Z,6.22
2023-01-15T09:32:48.634Z,6.23
2023-01-15T09:35:16.581Z,6.24
2023-01-15T09:37:44.489Z,6.25
2023-01-15T09:40:12.350Z,6.25
2023-01-15T09:42:41.720Z,6.25
2023-01-15T09:45:09.602Z,6.26
2023-01-15T09:47:37.473Z,6.26
2023-01-15T09:50:05.852Z,6.26
2023-01-15T09:52:33.771Z,6.26
2023-01-15T09:55:01.722Z,6.27
2023-01-15T09:57:29.618Z,6.27
2023-01-15T10:00:02.562Z,6.28
2023-01-15T10:02:30.506Z,6.29
2023-01-15T10:04:58.465Z,6.30
2023-01-15T10:07:26.476Z,6.36
2023-01-15T10:09:54.344Z,6.43
2023-01-15T10:12:39.980Z,6.44
2023-01-15T10:15:08.105Z,6.48
2023-01-15T10:17:35.977Z,6.52
2023-01-15T10:20:03.844Z,6.55
2023-01-15T10:22:31.734Z,6.58
2023-01-15T10:24:59.629Z,6.61
2023-01-15T10:27:27.587Z,6.65
2023-01-15T10:29:55.485Z,6.67
2023-01-15T10:32:24.320Z,6.70
2023-01-15T10:34:52.240Z,6.74
2023-01-15T10:37:20.696Z,6.77
2023-01-15T10:39:49.709Z,6.81
2023-01-15T10:42:17.611Z,6.86
2023-01-15T10:44:45.490Z,6.88
2023-01-15T10:47:13.812Z,6.90
2023-01-15T10:49:41.689Z,6.91
2023-01-15T10:52:09.583Z,6.91
2023-01-15T10:54:37.478Z,6.90
2023-01-15T10:57:10.298Z,6.88
2023-01-15T10:59:38.221Z,6.86
2023-01-15T11:02:06.204Z,6.85
2023-01-15T11:04:34.181Z,6.82
2023-01-15T11:07:03.580Z,6.79
2023-01-15T11:09:32.607Z,6.76
2023-01-15T11:12:00.483Z,6.73
2023-01-15T11:14:47.401Z,6.70
2023-01-15T11:17:34.372Z,6.66
2023-01-15T11:20:02.299Z,6.64
2023-01-15T11:22:30.189Z,6.62
2023-01-15T11:24:58.080Z,6.60
2023-01-15T11:27:25.992Z,6.58
2023-01-15T11:29:54.135Z,6.57
2023-01-15T11:32:22.014Z,6.56
2023-01-15T11:34:49.887Z,6.55
2023-01-15T11:37:17.751Z,6.54
2023-01-15T11:39:45.623Z,6.53
2023-01-15T11:42:32.134Z,6.52
2023-01-15T11:45:18.702Z,6.51
2023-01-15T11:48:05.114Z,6.49
2023-01-15T11:50:45.236Z,6.48
2023-01-15T11:53:13.120Z,6.47
2023-01-15T11:55:40.971Z,6.49
2023-01-15T11:58:08.827Z,6.49
2023-01-15T12:00:36.685Z,6.50
2023-01-15T12:03:04.592Z,6.51
2023-01-15T12:05:32.494Z,6.52
2023-01-15T12:08:00.393Z,6.53
2023-01-15T12:10:47.429Z,6.54
2023-01-15T12:13:15.301Z,6.57
2023-01-15T12:15:43.269Z,6.57
2023-01-15T12:18:11.160Z,6.58
2023-01-15T12:20:39.049Z,6.58
2023-01-15T12:23:08.887Z,6.59
2023-01-15T12:25:36.960Z,6.59
2023-01-15T12:28:04.938Z,6.60
2023-01-15T12:30:32.971Z,6.59
2023-01-15T12:33:00.841Z,6.58
2023-01-15T12:35:28.720Z,6.59
2023-01-15T12:37:56.637Z,6.59
2023-01-15T12:40:24.553Z,6.59
2023-01-15T12:43:11.337Z,6.59
2023-01-15T12:45:39.477Z,6.57
2023-01-15T12:48:07.348Z,6.57
2023-01-15T12:50:36.154Z,6.56
2023-01-15T12:53:04.199Z,6.55
2023-01-15T12:55:32.113Z,6.53
2023-01-15T12:57:59.978Z,6.52
2023-01-15T13:00:27.872Z,6.51
2023-01-15T13:02:55.786Z,6.50
2023-01-15T13:05:23.743Z,6.47
2023-01-15T13:07:51.639Z,6.46
2023-01-15T13:10:19.557Z,6.45
2023-01-15T13:12:47.439Z,6.43
2023-01-15T13:15:15.340Z,6.41
2023-01-15T13:17:44.864Z,6.39
2023-01-15T13:20:12.774Z,6.38
2023-01-15T13:22:40.659Z,6.36
2023-01-15T13:25:08.502Z,6.35
2023-01-15T13:27:36.357Z,6.32
2023-01-15T13:30:04.232Z,6.29
2023-01-15T13:32:32.855Z,6.27
2023-01-15T13:35:00.719Z,6.30
2023-01-15T13:37:28.641Z,6.27
2023-01-15T13:39:56.517Z,6.21
2023-01-15T13:42:33.387Z,6.17
2023-01-15T13:45:01.335Z,6.13
2023-01-15T13:47:29.198Z,6.09
2023-01-15T13:49:59.838Z,6.05
2023-01-15T13:52:27.796Z,6.00
2023-01-15T13:54:55.731Z,5.95
2023-01-15T13:57:23.590Z,5.89
2023-01-15T13:59:51.761Z,5.83
2023-01-15T14:02:19.811Z,5.80
2023-01-15T14:04:47.744Z,5.82
2023-01-15T14:07:15.601Z,5.79
2023-01-15T14:09:43.476Z,5.76
2023-01-15T14:12:11.364Z,5.73
2023-01-15T14:14:39.251Z,5.71
2023-01-15T14:17:07.156Z,5.68
2023-01-15T14:19:35.012Z,5.66
2023-01-15T14:22:02.888Z,5.63
2023-01-15T14:24:30.776Z,5.60
2023-01-15T14:26:58.648Z,5.58
2023-01-15T14:29:26.503Z,5.56
2023-01-15T14:31:54.651Z,5.56
2023-01-15T14:34:22.607Z,5.62
2023-01-15T14:36:50.444Z,5.63
2023-01-15T14:39:18.355Z,5.63
2023-01-15T14:42:05.039Z,5.63
2023-01-15T14:44:32.919Z,5.64
2023-01-15T14:47:00.785Z,5.64
2023-01-15T14:49:28.789Z,5.64
2023-01-15T14:51:56.702Z,5.64
2023-01-15T14:54:25.309Z,5.63
2023-01-15T14:56:53.178Z,5.62
2023-01-15T14:59:21.128Z,5.61
2023-01-15T15:01:49.835Z,5.61
2023-01-15T15:04:17.937Z,5.59
2023-01-15T15:06:45.818Z,5.60
2023-01-15T15:09:16.475Z,5.66
2023-01-15T15:12:03.142Z,5.66
2023-01-15T15:14:31.164Z,5.65
2023-01-15T15:16:59.115Z,5.66
2023-01-15T15:19:27.006Z,5.65
2023-01-15T15:21:54.876Z,5.64
2023-01-15T15:24:22.769Z,5.63
2023-01-15T15:26:50.724Z,5.61
2023-01-15T15:29:18.976Z,5.59
2023-01-15T15:31:48.367Z,5.57
2023-01-15T15:34:16.252Z,5.54
2023-01-15T15:36:44.113Z,5.53
2023-01-15T15:39:12.009Z,5.58
2023-01-15T15:41:58.797Z,5.59
2023-01-15T15:44:45.560Z,5.57
2023-01-15T15:47:33.758Z,5.54
2023-01-15T15:50:01.732Z,5.52
2023-01-15T15:52:29.893Z,5.50
2023-01-15T15:54:57.854Z,5.50
2023-01-15T15:57:25.736Z,5.47
2023-01-15T15:59:53.688Z,5.45
2023-01-15T16:02:21.782Z,5.49
2023-01-15T16:04:49.899Z,5.51
2023-01-15T16:07:18.007Z,5.50
2023-01-15T16:09:45.893Z,5.48
2023-01-15T16:12:13.779Z,5.48
2023-01-15T16:14:42.000Z,5.48
2023-01-15T16:17:09.900Z,5.47
2023-01-15T16:19:37.786Z,5.46
2023-01-15T16:22:05.667Z,5.46
2023-01-15T16:24:33.573Z,5.46
2023-01-15T16:27:01.485Z,5.51
2023-01-15T16:29:29.441Z,5.52
2023-01-15T16:31:59.993Z,5.51
2023-01-15T16:34:29.880Z,5.50
2023-01-15T16:36:57.832Z,5.50
2023-01-15T16:39:25.753Z,5.51
2023-01-15T16:41:53.704Z,5.51
2023-01-15T16:44:21.575Z,5.51
2023-01-15T16:46:49.447Z,5.49
2023-01-15T16:49:17.344Z,5.48
2023-01-15T16:51:45.217Z,5.53
2023-01-15T16:54:13.091Z,5.56
2023-01-15T16:56:41.679Z,5.56
2023-01-15T16:59:09.545Z,5.57
2023-01-15T17:01:38.546Z,5.57
2023-01-15T17:04:06.568Z,5.57
2023-01-15T17:06:34.427Z,5.56
2023-01-15T17:09:02.370Z,5.53
2023-01-15T17:11:30.410Z,5.50
2023-01-15T17:13:58.295Z,5.49
2023-01-15T17:19:30.932Z,5.57
2023-01-15T17:21:58.880Z,5.55
2023-01-15T17:27:49.842Z,5.55
2023-01-15T17:30:17.711Z,5.54
2023-01-15T17:32:45.593Z,5.53
2023-01-15T17:35:13.573Z,5.52
2023-01-15T17:37:41.452Z,5.59
2023-01-15T17:40:09.354Z,5.63
2023-01-15T17:42:37.230Z,5.60
2023-01-15T17:45:05.125Z,5.60
2023-01-15T17:47:32.988Z,5.59
2023-01-15T17:50:00.921Z,5.59
2023-01-15T17:52:28.890Z,5.57
2023-01-15T17:55:26.828Z,5.54
2023-01-15T17:58:13.405Z,5.59
2023-01-15T18:01:00.427Z,5.59
2023-01-15T18:07:01.872Z,5.51
2023-01-15T18:09:29.739Z,5.45
2023-01-15T18:11:57.661Z,5.40
2023-01-15T18:14:26.565Z,5.37
2023-01-15T18:17:12.885Z,5.36
2023-01-15T18:19:40.813Z,5.40
2023-01-15T18:22:10.628Z,5.40
2023-01-15T18:24:38.509Z,5.37
2023-01-15T18:27:06.392Z,5.32
2023-01-15T18:29:38.823Z,5.30
2023-01-15T18:32:07.202Z,5.28
2023-01-15T18:34:47.004Z,5.29
2023-01-15T18:37:14.864Z,5.34
2023-01-15T18:39:42.870Z,5.32
2023-01-15T18:42:10.726Z,5.27
2023-01-15T18:44:57.606Z,5.26
2023-01-15T18:47:25.592Z,5.28
2023-01-15T18:49:55.420Z,5.28
2023-01-15T18:52:52.929Z,5.29
2023-01-15T18:55:25.995Z,5.36
2023-01-15T18:57:53.968Z,5.35
2023-01-15T19:00:21.977Z,5.32
2023-01-15T19:02:50.073Z,5.29
2023-01-15T19:05:18.910Z,5.27
2023-01-15T19:07:46.847Z,5.20
2023-01-15T19:10:14.773Z,5.20
2023-01-15T19:12:44.025Z,5.22
2023-01-15T19:15:30.623Z,5.23
2023-01-15T19:18:17.387Z,5.23
2023-01-15T19:20:45.428Z,5.18
2023-01-15T19:23:13.368Z,5.17
2023-01-15T19:25:41.294Z,5.22
2023-01-15T19:28:09.260Z,5.23
2023-01-15T19:30:37.130Z,5.20
2023-01-15T19:33:05.059Z,5.16
2023-01-15T19:35:33.047Z,5.14
2023-01-15T19:38:00.951Z,5.10
2023-01-15T19:40:29.466Z,5.11
2023-01-15T19:43:16.306Z,5.14
2023-01-15T19:46:03.231Z,5.16
2023-01-15T19:48:49.809Z,5.16
2023-01-15T19:51:17.718Z,5.20
2023-01-15T19:53:45.665Z,5.20
2023-01-15T19:56:13.555Z,5.21
2023-01-15T19:58:41.446Z,5.25
2023-01-15T20:01:10.364Z,5.27
2023-01-15T20:03:38.414Z,5.27
2023-01-15T20:06:06.280Z,5.25
2023-01-15T20:08:34.203Z,5.25
2023-01-15T20:11:06.673Z,5.23
2023-01-15T20:13:51.376Z,5.23
2023-01-15T20:16:19.414Z,5.25
2023-01-15T20:18:47.313Z,5.27
2023-01-15T20:21:16.523Z,5.27
2023-01-15T20:23:44.395Z,5.27
2023-01-15T20:26:12.267Z,5.25
2023-01-15T20:28:42.789Z,5.23
2023-01-15T20:31:10.744Z,5.26
2023-01-15T20:33:38.650Z,5.27
2023-01-15T20:36:06.579Z,5.27
2023-01-15T20:38:34.473Z,5.26
2023-01-15T20:41:22.287Z,5.23
2023-01-15T20:44:09.099Z,5.21
2023-01-15T20:46:37.197Z,5.21
2023-01-15T20:49:24.023Z,5.22
2023-01-15T20:51:52.996Z,5.20
2023-01-15T20:54:20.862Z,5.15
2023-01-15T20:56:48.802Z,5.09
2023-01-15T20:59:16.676Z,5.10
2023-01-15T21:01:44.657Z,5.14
2023-01-15T21:04:14.052Z,5.15
2023-01-15T21:06:42.094Z,5.11
2023-01-15T21:09:09.978Z,5.10
2023-01-15T21:11:37.879Z,5.08
2023-01-15T21:14:05.878Z,5.07
2023-01-15T21:16:33.838Z,5.06
2023-01-15T21:19:04.625Z,5.11
2023-01-15T21:21:32.587Z,5.12
2023-01-15T21:24:00.460Z,5.09
2023-01-15T21:26:29.269Z,5.04
2023-01-15T21:28:57.269Z,5.01
2023-01-15T21:31:25.294Z,4.98
2023-01-15T21:33:53.212Z,5.01
2023-01-15T21:36:21.094Z,5.03
2023-01-15T21:38:48.975Z,5.01
2023-01-15T21:41:16.897Z,4.99
2023-01-15T21:44:03.576Z,4.99
2023-01-15T21:46:31.469Z,5.01
2023-01-15T21:48:59.670Z,5.05
2023-01-15T21:51:27.616Z,5.07
2023-01-15T21:53:55.697Z,5.06
2023-01-15T21:56:23.666Z,5.09
2023-01-15T21:58:51.576Z,5.11
2023-01-15T22:01:21.109Z,5.08
2023-01-15T22:03:49.236Z,5.06
2023-01-15T22:06:17.180Z,5.08
2023-01-15T22:08:45.047Z,5.06
2023-01-15T22:11:12.903Z,5.02
2023-01-15T22:13:41.065Z,4.95
2023-01-15T22:16:09.157Z,4.90
2023-01-15T22:18:37.035Z,4.86
2023-01-15T22:21:05.015Z,4.84
2023-01-15T22:23:33.053Z,4.87
2023-01-15T22:26:00.936Z,4.86
2023-01-15T22:28:28.827Z,4.85
2023-01-15T22:30:56.748Z,4.85
2023-01-15T22:33:24.724Z,4.84
2023-01-15T22:35:52.626Z,4.82
2023-01-15T22:38:20.499Z,4.82
2023-01-15T22:40:48.375Z,4.87
2023-01-15T22:43:16.313Z,4.87
2023-01-15T22:45:44.259Z,4.85
2023-01-15T22:48:12.192Z,4.82
2023-01-15T22:50:40.121Z,4.80
2023-01-15T22:53:08.027Z,4.78
2023-01-15T22:55:36.809Z,4.78
2023-01-15T22:58:04.781Z,4.82
2023-01-15T23:00:32.639Z,4.81
2023-01-15T23:03:06.683Z,4.80
2023-01-15T23:05:34.567Z,4.79
2023-01-15T23:08:02.493Z,4.77
2023-01-15T23:10:30.412Z,4.77
2023-01-15T23:12:58.291Z,4.81
2023-01-15T23:15:28.574Z,4.81
2023-01-15T23:17:56.636Z,4.79
2023-01-15T23:20:24.565Z,4.79
2023-01-15T23:22:52.535Z,4.78
2023-01-15T23:25:20.421Z,4.77
2023-01-15T23:27:48.301Z,4.78
2023-01-15T23:30:16.200Z,4.82
2023-01-15T23:32:44.296Z,4.82
2023-01-15T23:35:12.169Z,4.81
2023-01-15T23:37:40.048Z,4.82
2023-01-15T23:40:08.016Z,4.79
2023-01-15T23:42:54.604Z,4.76
2023-01-15T23:45:41.191Z,4.77
2023-01-15T23:48:09.086Z,4.79
2023-01-15T23:50:37.041Z,4.75
2023-01-15T23:53:05.800Z,4.76
2023-01-15T23:55:33.675Z,4.75
2023-01-15T23:58:01.593Z,4.76
